SWR457 LSZH-LEMH
Flight info
| Callsign | SWR457 |
|---|---|
| Flight time | N/A |
| Altitude | 33000 |
| Route | VEBIT T50 ROTOS Z669 ULMES DCT VADAR/N0481F370 DCT GEVEA DCT INCUS DCT BALSI DCT RETNO DCT TUPOX DCT MTG DCT DIVKO DCT VATIR DCT PIVUS/N0479F390 DCT BODEQ DCT VERSO DCT TOSNU L16 SARGO |
| Aircraft | B77W/H-SDE1E2E3FGHIJ2J3J4J5M1RWXY/LB1D1 |
Departure
| Time | 2026-05-05 14:45 |
|---|---|
| Airport | Zürich Airport (LSZH) |
Arrival
| Time | N/A |
|---|---|
| Airport | Menorca Airport (LEMH) |
| Time | Latitude | Longitude | Altitude | Speed | Heading |
|---|---|---|---|---|---|
| 2026-05-05 14:27 | 47.46160 | 8.55781 | 1406 ft | 0 kts | 186° |
| 2026-05-05 14:35 | 47.46175 | 8.55783 | 1406 ft | 4 kts | 186° |
| 2026-05-05 14:35 | 47.46197 | 8.55786 | 1411 ft | 4 kts | 175° |
| 2026-05-05 14:35 | 47.46221 | 8.55776 | 1412 ft | 4 kts | 139° |
| 2026-05-05 14:35 | 47.46236 | 8.55745 | 1410 ft | 4 kts | 108° |
| 2026-05-05 14:36 | 47.46241 | 8.55708 | 1409 ft | 4 kts | 96° |
| 2026-05-05 14:36 | 47.46244 | 8.55669 | 1407 ft | 4 kts | 96° |
| 2026-05-05 14:36 | 47.46245 | 8.55661 | 1404 ft | 0 kts | 96° |
| 2026-05-05 14:38 | 47.46240 | 8.55731 | 1412 ft | 14 kts | 96° |
| 2026-05-05 14:38 | 47.46204 | 8.55940 | 1407 ft | 26 kts | 128° |
| 2026-05-05 14:39 | 47.46034 | 8.55984 | 1402 ft | 26 kts | 184° |
| 2026-05-05 14:39 | 47.45926 | 8.55884 | 1408 ft | 10 kts | 279° |
| 2026-05-05 14:39 | 47.45941 | 8.55782 | 1405 ft | 11 kts | 283° |
| 2026-05-05 14:39 | 47.45954 | 8.55658 | 1402 ft | 15 kts | 278° |
| 2026-05-05 14:40 | 47.45968 | 8.55479 | 1408 ft | 18 kts | 274° |
| 2026-05-05 14:40 | 47.45979 | 8.55293 | 1410 ft | 18 kts | 276° |
| 2026-05-05 14:40 | 47.46003 | 8.55113 | 1406 ft | 18 kts | 302° |
| 2026-05-05 14:40 | 47.46112 | 8.55022 | 1411 ft | 18 kts | 335° |
| 2026-05-05 14:41 | 47.46226 | 8.54943 | 1406 ft | 18 kts | 335° |
| 2026-05-05 14:41 | 47.46341 | 8.54865 | 1410 ft | 18 kts | 335° |
| 2026-05-05 14:41 | 47.46454 | 8.54787 | 1411 ft | 18 kts | 335° |
| 2026-05-05 14:41 | 47.46568 | 8.54709 | 1408 ft | 18 kts | 335° |
| 2026-05-05 14:42 | 47.46683 | 8.54630 | 1409 ft | 18 kts | 335° |
| 2026-05-05 14:42 | 47.46781 | 8.54517 | 1410 ft | 18 kts | 308° |
| 2026-05-05 14:42 | 47.46864 | 8.54379 | 1406 ft | 18 kts | 326° |
| 2026-05-05 14:42 | 47.46976 | 8.54297 | 1411 ft | 18 kts | 334° |
| 2026-05-05 14:43 | 47.47091 | 8.54216 | 1410 ft | 18 kts | 335° |
| 2026-05-05 14:43 | 47.47204 | 8.54139 | 1410 ft | 18 kts | 335° |
| 2026-05-05 14:43 | 47.47320 | 8.54061 | 1406 ft | 18 kts | 335° |
| 2026-05-05 14:43 | 47.47442 | 8.53978 | 1409 ft | 20 kts | 335° |
| 2026-05-05 14:44 | 47.47566 | 8.53889 | 1410 ft | 20 kts | 325° |
| 2026-05-05 14:44 | 47.47592 | 8.53713 | 1412 ft | 20 kts | 240° |
| 2026-05-05 14:44 | 47.47483 | 8.53657 | 1408 ft | 17 kts | 156° |
| 2026-05-05 14:44 | 47.47272 | 8.53803 | 1410 ft | 78 kts | 155° |
| 2026-05-05 14:45 | 47.46402 | 8.54403 | 1423 ft | 192 kts | 155° |
| 2026-05-05 14:45 | 47.45119 | 8.55300 | 2748 ft | 205 kts | 156° |
| 2026-05-05 14:45 | 47.43869 | 8.56231 | 4001 ft | 202 kts | 149° |
| 2026-05-05 14:45 | 47.42961 | 8.57913 | 4356 ft | 225 kts | 108° |
| 2026-05-05 14:46 | 47.42972 | 8.60242 | 4981 ft | 235 kts | 71° |
| 2026-05-05 14:46 | 47.43830 | 8.62149 | 5600 ft | 238 kts | 37° |
| 2026-05-05 14:46 | 47.45319 | 8.63133 | 6294 ft | 240 kts | 3° |
| 2026-05-05 14:46 | 47.46921 | 8.62655 | 6913 ft | 237 kts | 323° |
| 2026-05-05 14:47 | 47.47920 | 8.60841 | 7582 ft | 228 kts | 282° |
| 2026-05-05 14:47 | 47.47898 | 8.58630 | 8372 ft | 215 kts | 253° |
| 2026-05-05 14:47 | 47.47543 | 8.56442 | 8904 ft | 224 kts | 256° |
| 2026-05-05 14:47 | 47.47260 | 8.54154 | 9634 ft | 224 kts | 249° |
| 2026-05-05 14:48 | 47.46423 | 8.52197 | 9993 ft | 235 kts | 226° |
| 2026-05-05 14:48 | 47.45334 | 8.50270 | 10189 ft | 259 kts | 233° |
| 2026-05-05 14:48 | 47.44265 | 8.47972 | 10652 ft | 277 kts | 236° |
| 2026-05-05 14:48 | 47.43234 | 8.45543 | 11443 ft | 285 kts | 238° |
| 2026-05-05 14:49 | 47.42192 | 8.42955 | 11998 ft | 307 kts | 239° |
| 2026-05-05 14:49 | 47.41084 | 8.40122 | 12235 ft | 338 kts | 239° |
| 2026-05-05 14:49 | 47.39888 | 8.37025 | 12767 ft | 356 kts | 239° |
| 2026-05-05 14:49 | 47.38658 | 8.33812 | 13721 ft | 364 kts | 240° |
| 2026-05-05 14:50 | 47.37451 | 8.30443 | 14734 ft | 370 kts | 241° |
| 2026-05-05 14:50 | 47.36279 | 8.27100 | 15759 ft | 373 kts | 241° |
| 2026-05-05 14:50 | 47.35322 | 8.24382 | 16533 ft | 377 kts | 241° |
| 2026-05-05 14:50 | 47.34097 | 8.20914 | 17499 ft | 382 kts | 241° |
| 2026-05-05 14:51 | 47.32987 | 8.17794 | 18279 ft | 389 kts | 241° |
| 2026-05-05 14:51 | 47.31973 | 8.14951 | 18907 ft | 393 kts | 241° |
| 2026-05-05 14:51 | 47.30689 | 8.11334 | 19669 ft | 400 kts | 241° |
| 2026-05-05 14:51 | 47.29388 | 8.07645 | 20435 ft | 406 kts | 241° |
| 2026-05-05 14:52 | 47.28082 | 8.03948 | 21194 ft | 412 kts | 241° |
| 2026-05-05 14:52 | 47.26747 | 8.00165 | 21946 ft | 418 kts | 242° |
| 2026-05-05 14:52 | 47.25545 | 7.96274 | 22663 ft | 425 kts | 245° |
| 2026-05-05 14:52 | 47.24451 | 7.92238 | 23377 ft | 431 kts | 246° |
| 2026-05-05 14:53 | 47.23354 | 7.88085 | 23980 ft | 436 kts | 246° |
| 2026-05-05 14:53 | 47.22238 | 7.83977 | 24644 ft | 439 kts | 245° |
| 2026-05-05 14:53 | 47.21234 | 7.80385 | 25217 ft | 441 kts | 245° |
| 2026-05-05 14:53 | 47.20096 | 7.76440 | 25829 ft | 443 kts | 243° |
| 2026-05-05 14:54 | 47.18848 | 7.72917 | 26376 ft | 446 kts | 238° |
| 2026-05-05 14:54 | 47.17174 | 7.69036 | 26956 ft | 448 kts | 233° |
| 2026-05-05 14:54 | 47.15246 | 7.65403 | 27518 ft | 451 kts | 229° |
| 2026-05-05 14:54 | 47.13284 | 7.61847 | 28057 ft | 454 kts | 230° |
| 2026-05-05 14:55 | 47.11339 | 7.58305 | 28715 ft | 454 kts | 230° |
| 2026-05-05 14:55 | 47.09397 | 7.54743 | 29319 ft | 455 kts | 230° |
| 2026-05-05 14:55 | 47.07413 | 7.51087 | 29969 ft | 454 kts | 230° |
| 2026-05-05 14:55 | 47.05474 | 7.47510 | 30603 ft | 451 kts | 230° |
| 2026-05-05 14:56 | 47.03514 | 7.43899 | 31275 ft | 447 kts | 230° |
| 2026-05-05 14:56 | 47.01579 | 7.40350 | 31922 ft | 444 kts | 230° |
| 2026-05-05 14:56 | 46.99658 | 7.36853 | 32492 ft | 443 kts | 230° |
| 2026-05-05 14:56 | 46.97816 | 7.33508 | 32887 ft | 444 kts | 230° |
| 2026-05-05 14:57 | 46.93895 | 7.26387 | 32883 ft | 444 kts | 230° |
| 2026-05-05 14:57 | 46.90168 | 7.19598 | 32872 ft | 434 kts | 230° |
| 2026-05-05 14:58 | 46.86387 | 7.12721 | 32892 ft | 436 kts | 230° |
| 2026-05-05 14:58 | 46.83172 | 7.06887 | 32888 ft | 438 kts | 230° |
| 2026-05-05 14:59 | 46.79353 | 6.99976 | 32887 ft | 439 kts | 230° |
| 2026-05-05 14:59 | 46.75558 | 6.93125 | 32882 ft | 439 kts | 230° |
| 2026-05-05 15:00 | 46.72399 | 6.87434 | 32890 ft | 432 kts | 230° |
| 2026-05-05 15:00 | 46.68038 | 6.79594 | 32892 ft | 433 kts | 230° |
| 2026-05-05 15:01 | 46.64223 | 6.73026 | 32889 ft | 433 kts | 227° |
| 2026-05-05 15:01 | 46.60121 | 6.66668 | 32905 ft | 437 kts | 226° |
| 2026-05-05 15:02 | 46.58731 | 6.64522 | 33035 ft | 440 kts | 226° |
| 2026-05-05 15:02 | 46.56041 | 6.60365 | 33575 ft | 440 kts | 226° |
| 2026-05-05 15:02 | 46.53951 | 6.57129 | 34107 ft | 437 kts | 226° |
| 2026-05-05 15:02 | 46.52606 | 6.55046 | 34355 ft | 437 kts | 226° |
| 2026-05-05 15:03 | 46.49946 | 6.50928 | 34733 ft | 439 kts | 226° |
| 2026-05-05 15:03 | 46.48549 | 6.48767 | 34924 ft | 440 kts | 226° |
| 2026-05-05 15:03 | 46.46556 | 6.45687 | 35208 ft | 440 kts | 226° |
| 2026-05-05 15:03 | 46.44468 | 6.42463 | 35489 ft | 443 kts | 226° |
| 2026-05-05 15:04 | 46.42452 | 6.39355 | 35667 ft | 446 kts | 226° |
| 2026-05-05 15:04 | 46.40310 | 6.36056 | 35995 ft | 446 kts | 226° |
| 2026-05-05 15:04 | 46.38204 | 6.32816 | 36340 ft | 445 kts | 226° |
| 2026-05-05 15:04 | 46.36073 | 6.29542 | 36673 ft | 445 kts | 226° |
| 2026-05-05 15:05 | 46.31959 | 6.23229 | 36867 ft | 450 kts | 226° |
| 2026-05-05 15:05 | 46.29850 | 6.20001 | 36892 ft | 449 kts | 226° |
| 2026-05-05 15:06 | 46.25452 | 6.14897 | 36901 ft | 448 kts | 209° |
| 2026-05-05 15:06 | 46.19596 | 6.11730 | 36897 ft | 452 kts | 192° |
| 2026-05-05 15:07 | 46.13577 | 6.10469 | 36913 ft | 453 kts | 191° |
| 2026-05-05 15:07 | 46.07449 | 6.09218 | 36911 ft | 453 kts | 191° |
| 2026-05-05 15:08 | 46.01228 | 6.07869 | 36908 ft | 453 kts | 191° |
| 2026-05-05 15:08 | 45.95248 | 6.06548 | 36911 ft | 451 kts | 192° |
| 2026-05-05 15:09 | 45.89946 | 6.05377 | 36926 ft | 449 kts | 192° |
| 2026-05-05 15:09 | 45.83852 | 6.04040 | 36919 ft | 447 kts | 192° |
| 2026-05-05 15:10 | 45.77901 | 6.02730 | 36913 ft | 445 kts | 192° |
| 2026-05-05 15:10 | 45.72699 | 6.01581 | 36904 ft | 444 kts | 192° |
| 2026-05-05 15:11 | 45.66653 | 6.00250 | 36882 ft | 443 kts | 192° |
| 2026-05-05 15:11 | 45.60588 | 5.98919 | 36875 ft | 442 kts | 193° |
| 2026-05-05 15:12 | 45.54700 | 5.97630 | 36874 ft | 442 kts | 193° |
| 2026-05-05 15:12 | 45.48658 | 5.96309 | 36882 ft | 442 kts | 193° |
| 2026-05-05 15:13 | 45.42695 | 5.94587 | 36883 ft | 440 kts | 196° |
| 2026-05-05 15:13 | 45.36816 | 5.92724 | 36897 ft | 440 kts | 196° |
| 2026-05-05 15:14 | 45.30807 | 5.90825 | 36882 ft | 440 kts | 196° |
| 2026-05-05 15:14 | 45.24858 | 5.88976 | 36896 ft | 439 kts | 196° |
| 2026-05-05 15:15 | 45.19438 | 5.87296 | 36886 ft | 439 kts | 196° |
| 2026-05-05 15:15 | 45.13461 | 5.85444 | 36912 ft | 438 kts | 196° |
| 2026-05-05 15:16 | 45.07609 | 5.83634 | 36859 ft | 436 kts | 197° |
| 2026-05-05 15:16 | 45.04849 | 5.82782 | 36978 ft | 434 kts | 196° |
| 2026-05-05 15:16 | 45.01919 | 5.81878 | 36933 ft | 435 kts | 197° |
| 2026-05-05 15:17 | 44.96026 | 5.80049 | 36899 ft | 435 kts | 196° |
| 2026-05-05 15:17 | 44.90164 | 5.78262 | 36913 ft | 434 kts | 196° |
| 2026-05-05 15:18 | 44.84615 | 5.76565 | 36882 ft | 433 kts | 197° |
| 2026-05-05 15:18 | 44.78824 | 5.74792 | 36903 ft | 432 kts | 197° |
| 2026-05-05 15:19 | 44.72960 | 5.72971 | 36905 ft | 432 kts | 197° |
| 2026-05-05 15:19 | 44.67440 | 5.71287 | 36916 ft | 433 kts | 196° |
| 2026-05-05 15:20 | 44.61516 | 5.69513 | 36929 ft | 434 kts | 196° |
| 2026-05-05 15:20 | 44.55615 | 5.67728 | 36918 ft | 435 kts | 196° |
| 2026-05-05 15:21 | 44.49726 | 5.65942 | 36911 ft | 434 kts | 196° |
| 2026-05-05 15:21 | 44.43830 | 5.64159 | 36918 ft | 434 kts | 196° |
| 2026-05-05 15:22 | 44.37958 | 5.62259 | 36914 ft | 432 kts | 200° |
| 2026-05-05 15:22 | 44.32328 | 5.59323 | 36918 ft | 429 kts | 205° |
| 2026-05-05 15:23 | 44.26901 | 5.56303 | 36897 ft | 429 kts | 205° |
| 2026-05-05 15:23 | 44.21349 | 5.53254 | 36902 ft | 430 kts | 205° |
| 2026-05-05 15:24 | 44.15846 | 5.50244 | 36917 ft | 430 kts | 205° |
| 2026-05-05 15:24 | 44.10661 | 5.47413 | 36907 ft | 431 kts | 205° |
| 2026-05-05 15:25 | 44.05071 | 5.44366 | 36905 ft | 430 kts | 205° |
| 2026-05-05 15:25 | 43.99510 | 5.41339 | 36900 ft | 430 kts | 205° |
| 2026-05-05 15:26 | 43.93927 | 5.38313 | 36892 ft | 431 kts | 205° |
| 2026-05-05 15:26 | 43.88356 | 5.35308 | 36909 ft | 430 kts | 205° |
| 2026-05-05 15:27 | 43.82916 | 5.32378 | 36922 ft | 430 kts | 205° |
| 2026-05-05 15:27 | 43.77407 | 5.29415 | 36906 ft | 431 kts | 205° |
| 2026-05-05 15:28 | 43.71785 | 5.26396 | 36914 ft | 431 kts | 205° |
| 2026-05-05 15:28 | 43.66612 | 5.23626 | 36917 ft | 431 kts | 205° |
| 2026-05-05 15:29 | 43.61295 | 5.20781 | 36914 ft | 430 kts | 205° |
| 2026-05-05 15:29 | 43.55828 | 5.17862 | 36911 ft | 430 kts | 205° |
| 2026-05-05 15:30 | 43.50368 | 5.14953 | 36898 ft | 430 kts | 205° |
| 2026-05-05 15:30 | 43.45074 | 5.12137 | 36905 ft | 429 kts | 205° |
| 2026-05-05 15:31 | 43.39678 | 5.09095 | 36916 ft | 425 kts | 210° |
| 2026-05-05 15:31 | 43.34595 | 5.04991 | 36918 ft | 421 kts | 217° |
| 2026-05-05 15:32 | 43.30283 | 5.00877 | 36906 ft | 421 kts | 217° |
| 2026-05-05 15:32 | 43.25467 | 4.96323 | 36914 ft | 421 kts | 217° |
| 2026-05-05 15:33 | 43.20648 | 4.91790 | 36926 ft | 422 kts | 217° |
| 2026-05-05 15:33 | 43.16097 | 4.87521 | 36920 ft | 423 kts | 217° |
| 2026-05-05 15:34 | 43.11365 | 4.83089 | 36898 ft | 423 kts | 217° |
| 2026-05-05 15:34 | 43.06509 | 4.78554 | 36905 ft | 422 kts | 216° |
| 2026-05-05 15:35 | 43.01442 | 4.74504 | 36917 ft | 423 kts | 212° |
| 2026-05-05 15:35 | 42.96298 | 4.70637 | 36908 ft | 422 kts | 212° |
| 2026-05-05 15:36 | 42.91140 | 4.66748 | 36904 ft | 421 kts | 212° |
| 2026-05-05 15:36 | 42.86022 | 4.62885 | 36911 ft | 420 kts | 212° |
| 2026-05-05 15:37 | 42.80923 | 4.59040 | 36912 ft | 420 kts | 212° |
| 2026-05-05 15:37 | 42.75817 | 4.55197 | 36917 ft | 420 kts | 212° |
| 2026-05-05 15:38 | 42.70685 | 4.51342 | 36911 ft | 421 kts | 212° |
| 2026-05-05 15:38 | 42.65543 | 4.47488 | 36912 ft | 421 kts | 212° |
| 2026-05-05 15:39 | 42.60444 | 4.43673 | 36909 ft | 421 kts | 212° |
| 2026-05-05 15:39 | 42.55279 | 4.39817 | 36909 ft | 422 kts | 212° |
| 2026-05-05 15:40 | 42.50169 | 4.36009 | 36898 ft | 421 kts | 212° |
| 2026-05-05 15:40 | 42.45052 | 4.32202 | 36905 ft | 420 kts | 212° |
| 2026-05-05 15:41 | 42.39913 | 4.28386 | 36905 ft | 420 kts | 212° |
| 2026-05-05 15:41 | 42.34796 | 4.24593 | 36901 ft | 419 kts | 212° |
| 2026-05-05 15:42 | 42.29700 | 4.20822 | 36898 ft | 418 kts | 212° |
| 2026-05-05 15:42 | 42.24581 | 4.17041 | 36906 ft | 419 kts | 212° |
| 2026-05-05 15:43 | 42.19473 | 4.13275 | 36900 ft | 419 kts | 212° |
| 2026-05-05 15:43 | 42.14358 | 4.09511 | 36897 ft | 419 kts | 212° |
| 2026-05-05 15:44 | 42.09264 | 4.05764 | 36891 ft | 419 kts | 212° |
| 2026-05-05 15:44 | 42.04135 | 4.01996 | 36894 ft | 419 kts | 212° |
| 2026-05-05 15:45 | 41.99030 | 3.98251 | 36893 ft | 420 kts | 212° |
| 2026-05-05 15:45 | 41.93776 | 3.94795 | 36893 ft | 424 kts | 205° |
| 2026-05-05 15:46 | 41.88125 | 3.92410 | 36882 ft | 429 kts | 199° |
| 2026-05-05 15:46 | 41.82202 | 3.90961 | 36895 ft | 432 kts | 195° |
| 2026-05-05 15:47 | 41.76278 | 3.89632 | 36894 ft | 432 kts | 196° |
| 2026-05-05 15:47 | 41.70372 | 3.88273 | 36877 ft | 432 kts | 196° |
| 2026-05-05 15:47 | 41.67422 | 3.87584 | 36271 ft | 440 kts | 196° |
| 2026-05-05 15:48 | 41.64391 | 3.86879 | 35731 ft | 436 kts | 196° |
| 2026-05-05 15:48 | 41.61431 | 3.86194 | 34982 ft | 433 kts | 196° |
| 2026-05-05 15:48 | 41.58470 | 3.85514 | 34416 ft | 426 kts | 196° |
| 2026-05-05 15:48 | 41.55573 | 3.84856 | 33944 ft | 417 kts | 196° |
| 2026-05-05 15:49 | 41.52753 | 3.84217 | 33255 ft | 412 kts | 196° |
| 2026-05-05 15:49 | 41.49912 | 3.83568 | 32340 ft | 413 kts | 196° |
| 2026-05-05 15:49 | 41.48025 | 3.83135 | 31754 ft | 412 kts | 196° |
| 2026-05-05 15:49 | 41.44268 | 3.82277 | 30884 ft | 408 kts | 196° |
| 2026-05-05 15:50 | 41.41511 | 3.81650 | 30341 ft | 403 kts | 196° |
| 2026-05-05 15:50 | 41.39675 | 3.81233 | 29973 ft | 400 kts | 197° |
| 2026-05-05 15:50 | 41.36941 | 3.80611 | 29321 ft | 396 kts | 197° |
| 2026-05-05 15:50 | 41.34222 | 3.79993 | 28651 ft | 393 kts | 197° |
| 2026-05-05 15:51 | 41.31571 | 3.79389 | 28030 ft | 389 kts | 197° |
| 2026-05-05 15:51 | 41.28897 | 3.78781 | 27367 ft | 387 kts | 197° |
| 2026-05-05 15:51 | 41.26234 | 3.78176 | 26672 ft | 385 kts | 196° |
| 2026-05-05 15:51 | 41.23627 | 3.77585 | 26081 ft | 382 kts | 196° |
| 2026-05-05 15:52 | 41.21008 | 3.76993 | 25524 ft | 379 kts | 196° |
| 2026-05-05 15:52 | 41.18396 | 3.76478 | 24969 ft | 380 kts | 192° |
| 2026-05-05 15:52 | 41.15765 | 3.76436 | 24438 ft | 383 kts | 185° |
| 2026-05-05 15:52 | 41.13083 | 3.76735 | 23910 ft | 385 kts | 181° |
| 2026-05-05 15:53 | 41.10454 | 3.77378 | 23366 ft | 390 kts | 173° |
| 2026-05-05 15:53 | 41.07833 | 3.78358 | 22773 ft | 389 kts | 172° |
| 2026-05-05 15:53 | 41.05230 | 3.79340 | 22197 ft | 385 kts | 172° |
| 2026-05-05 15:53 | 41.02684 | 3.80276 | 21687 ft | 381 kts | 172° |
| 2026-05-05 15:54 | 41.00123 | 3.81204 | 21157 ft | 379 kts | 172° |
| 2026-05-05 15:54 | 40.97576 | 3.82125 | 20663 ft | 376 kts | 172° |
| 2026-05-05 15:54 | 40.95080 | 3.83027 | 20176 ft | 374 kts | 172° |
| 2026-05-05 15:54 | 40.92565 | 3.83934 | 19673 ft | 372 kts | 171° |
| 2026-05-05 15:55 | 40.90103 | 3.84822 | 19185 ft | 370 kts | 171° |
| 2026-05-05 15:55 | 40.87603 | 3.85723 | 18688 ft | 369 kts | 171° |
| 2026-05-05 15:55 | 40.85153 | 3.86605 | 18197 ft | 368 kts | 171° |
| 2026-05-05 15:55 | 40.82675 | 3.87497 | 17615 ft | 367 kts | 171° |
| 2026-05-05 15:56 | 40.80213 | 3.88383 | 17099 ft | 365 kts | 170° |
| 2026-05-05 15:56 | 40.77785 | 3.89256 | 16580 ft | 363 kts | 170° |
| 2026-05-05 15:56 | 40.75341 | 3.90134 | 16097 ft | 360 kts | 170° |
| 2026-05-05 15:56 | 40.72949 | 3.90993 | 15604 ft | 358 kts | 170° |
| 2026-05-05 15:57 | 40.70545 | 3.91856 | 15105 ft | 356 kts | 170° |
| 2026-05-05 15:57 | 40.68177 | 3.92704 | 14629 ft | 354 kts | 169° |
| 2026-05-05 15:57 | 40.65795 | 3.93557 | 14136 ft | 353 kts | 169° |
| 2026-05-05 15:57 | 40.63412 | 3.94410 | 13646 ft | 351 kts | 169° |
| 2026-05-05 15:58 | 40.61082 | 3.95243 | 13101 ft | 350 kts | 169° |
| 2026-05-05 15:58 | 40.58731 | 3.96084 | 12600 ft | 348 kts | 169° |
| 2026-05-05 15:58 | 40.56396 | 3.96918 | 12108 ft | 345 kts | 169° |
| 2026-05-05 15:58 | 40.54107 | 3.97735 | 11633 ft | 343 kts | 168° |
| 2026-05-05 15:59 | 40.51777 | 3.98566 | 11154 ft | 341 kts | 168° |
| 2026-05-05 15:59 | 40.49512 | 3.99373 | 10696 ft | 339 kts | 168° |
| 2026-05-05 15:59 | 40.47264 | 4.00175 | 10553 ft | 327 kts | 168° |
| 2026-05-05 15:59 | 40.45119 | 4.00939 | 10411 ft | 317 kts | 168° |
| 2026-05-05 16:00 | 40.43009 | 4.01690 | 10272 ft | 306 kts | 168° |
| 2026-05-05 16:00 | 40.41002 | 4.02403 | 10147 ft | 296 kts | 168° |
| 2026-05-05 16:00 | 40.39037 | 4.03101 | 10022 ft | 287 kts | 169° |
| 2026-05-05 16:00 | 40.37156 | 4.03768 | 9894 ft | 278 kts | 169° |
| 2026-05-05 16:01 | 40.35294 | 4.04426 | 9590 ft | 276 kts | 168° |
| 2026-05-05 16:01 | 40.33438 | 4.05081 | 9268 ft | 274 kts | 168° |
| 2026-05-05 16:01 | 40.31613 | 4.05724 | 8954 ft | 273 kts | 168° |
| 2026-05-05 16:01 | 40.29773 | 4.06374 | 8619 ft | 272 kts | 168° |
| 2026-05-05 16:02 | 40.27963 | 4.07013 | 8307 ft | 271 kts | 168° |
| 2026-05-05 16:02 | 40.26140 | 4.07656 | 7981 ft | 270 kts | 168° |
| 2026-05-05 16:02 | 40.24319 | 4.08299 | 7650 ft | 270 kts | 168° |
| 2026-05-05 16:02 | 40.22519 | 4.08934 | 7335 ft | 269 kts | 168° |
| 2026-05-05 16:03 | 40.20704 | 4.09574 | 7016 ft | 269 kts | 167° |
| 2026-05-05 16:03 | 40.18895 | 4.10212 | 6688 ft | 269 kts | 167° |
| 2026-05-05 16:03 | 40.17099 | 4.10846 | 6367 ft | 269 kts | 168° |
| 2026-05-05 16:03 | 40.15318 | 4.11473 | 6097 ft | 266 kts | 168° |
| 2026-05-05 16:04 | 40.13559 | 4.12093 | 5905 ft | 252 kts | 168° |
| 2026-05-05 16:04 | 40.11904 | 4.12676 | 5523 ft | 239 kts | 167° |
| 2026-05-05 16:04 | 40.10349 | 4.13233 | 5227 ft | 223 kts | 164° |
| 2026-05-05 16:04 | 40.09035 | 4.14195 | 4982 ft | 222 kts | 138° |
| 2026-05-05 16:05 | 40.08135 | 4.15886 | 4806 ft | 231 kts | 115° |
| 2026-05-05 16:05 | 40.07809 | 4.17940 | 4576 ft | 232 kts | 93° |
| 2026-05-05 16:05 | 40.07956 | 4.20002 | 4245 ft | 228 kts | 84° |
| 2026-05-05 16:05 | 40.08045 | 4.22054 | 3984 ft | 222 kts | 98° |
| 2026-05-05 16:06 | 40.07464 | 4.23834 | 3828 ft | 210 kts | 136° |
| 2026-05-05 16:06 | 40.06256 | 4.24709 | 3735 ft | 198 kts | 173° |
| 2026-05-05 16:06 | 40.04890 | 4.24816 | 3669 ft | 196 kts | 182° |
| 2026-05-05 16:06 | 40.03515 | 4.24796 | 3481 ft | 197 kts | 183° |
| 2026-05-05 16:07 | 40.02180 | 4.24703 | 3232 ft | 191 kts | 188° |
| 2026-05-05 16:07 | 40.00877 | 4.24502 | 3002 ft | 184 kts | 191° |
| 2026-05-05 16:07 | 39.99629 | 4.24275 | 2744 ft | 179 kts | 191° |